Terminal Aerodrome Forecast
Issued by NWS

Home | Current Version | Previous Version | Text Only | Print | Product List | Glossary On
Versions: 1 2 3 4 5 6 7 8 9 10 11 12 13 14 15 16 17 18 19 20 21 22 23 24 25 26 27 28
000
FTAK31 PANC 221602 AAA
TAFAGK
TAF AMD
PAGK 221602Z 2216/2312 27007KT P6SM SCT020 BKN035
      TEMPO 2216/2220 BKN020
     FM222000 32008KT P6SM SCT040 BKN080
     FM230300 VRB05KT P6SM OVC100=

USA.gov is the U.S. government's official web portal to all federal, state and local government web resources and services.